Watson, Oklahoma
Current Conditions -  °F | °C
As of 11:55 PM on Saturday 22 Nov 2014 (Local Time) from KMEZ Reporting Station
Overcast Overcast  
Wind Chill: 63°   Ceiling: 1700
Heat Index: 63°   Visibility: 10mi
Dew Point: 59°   Wind: 7mph
Humidity: 88%   Direction: 140°SE
Pressure: 29.76"   Gusts: 18mph
Location:  34.44°N, 94.56°W
Report Text: KMEZ 230555Z AUTO 14006G16KT 10SM SCT013 BKN017 OVC036 17/15 A2976 RMK AO2 P0003
Loading
Personal Weather Stations






























Interactive Weather Map New forecast layout! Learn more

10-Day Weather Forecast

Advertisements
Track Severe Weather on mobile